Tarry, Arkansas
Current Conditions -  °F | °C
As of 1:53 PM on Thursday 29 Jan 2015 (Local Time) from KPBF Reporting Station
Clear Clear  
Wind Chill: 66°   Ceiling: Unl
Heat Index: 66°   Visibility: 10mi
Dew Point: 42°   Wind: 10mph
Humidity: 42%   Direction: 320°NW
Pressure: 30.15"   Gusts: NA
Location:  33.924°N, 91.8685°W
Report Text: KPBF 291953Z AUTO 32009KT 10SM CLR 19/06 A3015 RMK AO2 SLP209 T01890056
Loading
Personal Weather Stations






























Interactive Weather Map New forecast layout! Learn more

10-Day Weather Forecast

Advertisements
Track Severe Weather on mobile